Weather History for KDAW - October, 2011

Change the Weather History Date:

Friday, October 14, 2011

  Actual Average (KSFM) Record (KSFM)
Temperature  
Mean Temperature 60 °F -  
Max Temperature 64 °F 57 °F 80 °F (2000)
Min Temperature 57 °F 36 °F 24 °F (2006)
Degree Days  
Heating Degree Days 4    
Growing Degree Days 10 (Base 50)    
Moisture  
Dew Point 60 °F    
Average Humidity 99    
Maximum Humidity 100    
Minimum Humidity 94    
Precipitation  
Precipitation 0.88 in - - ()
Sea Level Pressure  
Sea Level Pressure 29.56 in    
Wind  
Wind Speed 5 mph (East)    
Max Wind Speed 8 mph    
Max Gust Speed -    
Visibility 3 miles    
Events Fog , Rain    
Averages and records for this station are not official NWS values.
T = Trace of Precipitation, MM = Missing Value Source: NWS Daily Summary

Daily Weather History Graph

Daily Weather History Graph

Search for Another Location

Airport or City:

Trip Planner

Search our weather history database for the weather conditions in past years. The results will help you decide how hot, cold, wet, or windy it might be!

Date:

Astronomy

Oct. 14, 2011 Rise Set
Actual Time 6:55 AM EDT 6:02 PM EDT
Civil Twilight 6:27 AM EDT 6:31 PM EDT
Nautical Twilight 5:54 AM EDT 7:04 PM EDT
Astronomical Twilight 5:21 AM EDT 7:37 PM EDT
Moon 7:08 PM EDT (10/14) 9:27 AM EDT (10/14)
Length of Visible Light 12h 04m
Length of Day
11h 06m
Waning Gibbous, 94% of the Moon is Illuminated
Oct 14
Waning Gibbous
Oct 19
Last Quarter
Oct 26
New
Nov 2
First Quarter
Nov 10
Full

Hourly Weather History & Observations

Time (EDT) Temp. Dew Point Humidity Pressure Visibility Wind Dir Wind Speed Gust Speed Precip Events Conditions
12:51 AM 57.0 °F 55.9 °F 96% 29.79 in 3.0 mi North 4.6 mph - N/A   Overcast
1:34 AM 57.2 °F 55.4 °F 94% 29.79 in 2.0 mi North 5.8 mph - N/A   Overcast
1:46 AM 57.2 °F 55.4 °F 94% 29.79 in 3.0 mi North 5.8 mph - N/A   Overcast
1:51 AM 57.0 °F 55.9 °F 96% 29.78 in 3.0 mi North 5.8 mph - N/A   Overcast
2:16 AM 57.2 °F 55.4 °F 94% 29.79 in 3.0 mi North 4.6 mph - N/A   Overcast
2:27 AM 57.2 °F 55.4 °F 94% 29.79 in 2.5 mi North 4.6 mph - N/A   Overcast
2:51 AM 57.0 °F 57.0 °F 100% 29.78 in 3.0 mi North 3.5 mph - 0.01 in   Overcast
3:20 AM 57.2 °F 57.2 °F 100% 29.78 in 2.5 mi North 4.6 mph - N/A   Overcast
3:28 AM 57.2 °F 57.2 °F 100% 29.77 in 3.0 mi North 5.8 mph - N/A   Overcast
3:51 AM 57.0 °F 57.0 °F 100% 29.76 in 4.0 mi NNE 5.8 mph - N/A   Overcast
4:51 AM 57.9 °F 57.0 °F 97% 29.75 in 10.0 mi Calm Calm - N/A   Overcast
5:51 AM 57.9 °F 57.0 °F 97% 29.75 in 10.0 mi NNE 3.5 mph - N/A   Overcast
6:51 AM 57.9 °F 57.0 °F 97% 29.73 in 10.0 mi NE 5.8 mph - N/A   Overcast
7:25 AM 57.2 °F 57.2 °F 100% 29.74 in 2.0 mi ENE 6.9 mph - N/A   Overcast
7:32 AM 57.2 °F 57.2 °F 100% 29.74 in 1.5 mi NE 6.9 mph - N/A   Overcast
7:51 AM 57.9 °F 57.0 °F 97% 29.73 in 1.5 mi NE 6.9 mph - N/A   Overcast
8:11 AM 57.2 °F 57.2 °F 100% 29.73 in 2.5 mi Variable 3.5 mph - N/A   Overcast
8:51 AM 57.9 °F 57.9 °F 100% 29.74 in 1.0 mi Calm Calm - 0.10 in Rain Heavy Rain
8:58 AM 57.2 °F 57.2 °F 100% 29.74 in 0.5 mi Calm Calm - 0.10 in Fog , Rain Heavy Rain
9:05 AM 57.2 °F 57.2 °F 100% 29.74 in 1.0 mi ESE 4.6 mph - 0.14 in Rain Heavy Rain
9:11 AM 57.2 °F 57.2 °F 100% 29.73 in 3.0 mi ENE 4.6 mph - 0.14 in Rain Light Rain
9:45 AM 59.0 °F 57.2 °F 94% 29.72 in 2.5 mi NE 5.8 mph - 0.15 in Rain Light Rain
9:51 AM 59.0 °F 59.0 °F 100% 29.71 in 2.0 mi NE 5.8 mph - 0.15 in Rain Light Rain
10:06 AM 59.0 °F 59.0 °F 100% 29.70 in 2.5 mi NE 5.8 mph - 0.00 in   Overcast
10:21 AM 60.8 °F 59.0 °F 94% 29.69 in 5.0 mi NE 4.6 mph - 0.00 in   Overcast
10:51 AM 60.1 °F 59.0 °F 96% 29.67 in 6.0 mi NE 4.6 mph - 0.01 in Rain Light Rain
11:04 AM 60.8 °F 60.8 °F 100% 29.68 in 1.8 mi ENE 5.8 mph - 0.00 in   Overcast
11:16 AM 60.8 °F 60.8 °F 100% 29.67 in 3.0 mi NE 6.9 mph - 0.00 in   Overcast
11:48 AM 60.8 °F 60.8 °F 100% 29.65 in 2.5 mi East 8.1 mph - 0.00 in   Overcast
11:51 AM 61.0 °F 60.1 °F 97% 29.64 in 2.5 mi East 6.9 mph - 0.00 in   Overcast
12:01 PM 60.8 °F 60.8 °F 100% 29.65 in 1.2 mi Variable 4.6 mph - 0.02 in Rain Light Rain
12:14 PM 60.8 °F 60.8 °F 100% 29.63 in 0.8 mi East 5.8 mph - 0.12 in Rain Heavy Rain
12:24 PM 62.6 °F 60.8 °F 94% 29.63 in 1.2 mi ENE 6.9 mph - 0.12 in Rain Light Rain
12:44 PM 62.6 °F 62.6 °F 100% 29.61 in 3.0 mi Variable 6.9 mph - 0.12 in   Overcast
12:51 PM 62.1 °F 61.0 °F 96% 29.60 in 5.0 mi East 4.6 mph - 0.12 in   Overcast
1:51 PM 62.1 °F 61.0 °F 96% 29.57 in 4.0 mi East 5.8 mph - 0.01 in   Overcast
2:06 PM 62.6 °F 62.6 °F 100% 29.57 in 1.8 mi East 6.9 mph - 0.00 in Rain Light Rain
2:20 PM 62.6 °F 60.8 °F 94% 29.56 in 3.0 mi Variable 3.5 mph - 0.00 in   Overcast
2:38 PM 62.6 °F 62.6 °F 100% 29.54 in 1.8 mi ESE 4.6 mph - 0.00 in   Overcast
2:51 PM 62.1 °F 62.1 °F 100% 29.52 in 0.8 mi East 4.6 mph - 0.00 in   Overcast
3:24 PM 62.6 °F 62.6 °F 100% 29.51 in 0.2 mi East 4.6 mph - 0.00 in Fog , Rain Light Rain
3:44 PM 62.6 °F 62.6 °F 100% 29.50 in 0.5 mi East 4.6 mph - 0.14 in Fog , Rain Heavy Rain
3:51 PM 62.1 °F 62.1 °F 100% 29.49 in 1.2 mi Variable 4.6 mph - 0.18 in Rain Heavy Rain
4:02 PM 62.6 °F 62.6 °F 100% 29.49 in 2.5 mi East 6.9 mph - 0.01 in Rain Light Rain
4:11 PM 62.6 °F 62.6 °F 100% 29.49 in 5.0 mi SE 5.8 mph - 0.01 in Rain Light Rain
4:51 PM 64.0 °F 63.0 °F 96% 29.45 in 5.0 mi SSE 6.9 mph - 0.03 in Rain Light Rain
5:51 PM 64.9 °F 64.9 °F 100% 29.41 in 9.0 mi SSE 4.6 mph - 0.03 in   Overcast
6:20 PM 64.4 °F 64.4 °F 100% 29.40 in 0.5 mi SE 6.9 mph - 0.01 in Fog , Rain Light Rain
6:39 PM 64.4 °F 64.4 °F 100% 29.40 in 0.2 mi SSE 6.9 mph - 0.01 in Fog Fog
6:51 PM 64.0 °F 64.0 °F 100% 29.39 in 0.8 mi SSE 4.6 mph - 0.02 in Rain Light Rain
7:32 PM 64.4 °F 64.4 °F 100% 29.38 in 2.0 mi SSE 5.8 mph - 0.02 in Rain Light Rain
7:40 PM 64.4 °F 62.6 °F 94% 29.38 in 5.0 mi SSE 5.8 mph - 0.02 in Rain Light Rain
7:51 PM 63.0 °F 63.0 °F 100% 29.37 in 3.0 mi SSE 5.8 mph - 0.05 in Rain Rain
7:55 PM 62.6 °F 62.6 °F 100% 29.37 in 1.8 mi SSE 3.5 mph - 0.05 in Rain Heavy Rain
8:04 PM 62.6 °F 62.6 °F 100% 29.36 in 3.0 mi SE 4.6 mph - 0.07 in Rain Light Rain
8:26 PM 62.6 °F 62.6 °F 100% 29.35 in 2.5 mi Calm Calm - 0.12 in Rain Rain
8:33 PM 62.6 °F 62.6 °F 100% 29.35 in 9.0 mi SE 3.5 mph - 0.12 in Rain Light Rain
8:51 PM 63.0 °F 63.0 °F 100% 29.34 in 9.0 mi SE 3.5 mph - 0.12 in Rain Light Rain
9:22 PM 62.6 °F 62.6 °F 100% 29.33 in 1.8 mi South 5.8 mph - 0.00 in Rain Light Rain
9:34 PM 62.6 °F 62.6 °F 100% 29.33 in 0.5 mi South 4.6 mph - 0.01 in Fog , Rain Light Rain
9:48 PM 62.6 °F 62.6 °F 100% 29.33 in 1.2 mi SSE 3.5 mph - 0.01 in Rain Light Rain
9:51 PM 63.0 °F 63.0 °F 100% 29.32 in 1.5 mi SSE 4.6 mph - 0.01 in Rain Light Rain
10:02 PM 62.6 °F 62.6 °F 100% 29.31 in 2.0 mi SSE 3.5 mph - 0.01 in Rain Light Rain
10:13 PM 62.6 °F 62.6 °F 100% 29.31 in 1.2 mi SSE 4.6 mph - 0.01 in   Overcast
10:24 PM 62.6 °F 62.6 °F 100% 29.30 in 0.8 mi South 3.5 mph - 0.01 in   Mist
10:40 PM 62.6 °F 62.6 °F 100% 29.30 in 3.0 mi South 4.6 mph - 0.01 in   Overcast
10:51 PM 63.0 °F 62.1 °F 97% 29.29 in 8.0 mi SSE 5.8 mph - 0.01 in   Overcast
11:29 PM 62.6 °F 60.8 °F 94% 29.28 in 10.0 mi South 5.8 mph - 0.03 in   Scattered Clouds
11:51 PM 61.0 °F 61.0 °F 100% 29.26 in 10.0 mi South 4.6 mph - 0.03 in   Mostly Cloudy